Time;durP1;ratioP1;P1;durP2;ratioP2;P2;SDS_P1;SDS_P2;PMS_P1;PMS_P2;Temp;Humidity;BMP_temperature;BMP_pressure;BME280_temperature;BME280_humidity;BME280_pressure;Samples;Min_cycle;Max_cycle;Signal;HPM_P1;HPM_P2
2023/09/06 00:01:18;;;;;;;5.05;1.50;;;;;;;19.17;81.98;101344.66;7382431;19;20354;-77
2023/09/06 00:03:45;;;;;;;4.00;1.20;;;;;;;19.17;81.83;101343.81;7388523;19;20344;-77
2023/09/06 00:06:12;;;;;;;2.95;1.33;;;;;;;19.13;81.46;101349.63;7388063;19;20353;-77
2023/09/06 00:08:39;;;;;;;3.33;1.40;;;;;;;19.11;81.76;101342.81;7386019;19;20395;-76
2023/09/06 00:11:06;;;;;;;4.10;1.60;;;;;;;19.07;82.07;101345.09;7382589;19;20695;-77
2023/09/06 00:13:34;;;;;;;2.42;1.30;;;;;;;19.02;81.99;101350.31;7386184;19;20363;-77
2023/09/06 00:16:03;;;;;;;2.30;1.27;;;;;;;18.97;82.05;101347.44;7387839;19;21069;-77
2023/09/06 00:18:30;;;;;;;4.28;1.40;;;;;;;18.93;82.24;101348.91;7386410;19;20352;-77
2023/09/06 00:20:58;;;;;;;3.78;1.40;;;;;;;18.87;82.43;101344.38;7386813;19;20818;-77
2023/09/06 00:23:25;;;;;;;5.47;1.65;;;;;;;18.81;82.78;101345.25;7388230;19;20416;-77
2023/09/06 00:25:55;;;;;;;3.60;1.40;;;;;;;18.78;82.64;101337.56;7383587;19;20363;-77
2023/09/06 00:28:25;;;;;;;6.00;1.25;;;;;;;18.75;82.96;101336.97;7385515;19;20344;-77
2023/09/06 00:30:57;;;;;;;3.10;1.40;;;;;;;18.73;83.31;101344.41;7383734;19;20647;-77
2023/09/06 00:33:33;;;;;;;6.20;2.22;;;;;;;18.71;83.27;101342.97;7385452;19;20337;-77
2023/09/06 00:36:02;;;;;;;4.70;1.55;;;;;;;18.69;83.91;101343.19;7382371;19;20428;-77
2023/09/06 00:38:29;;;;;;;8.07;1.90;;;;;;;18.65;84.10;101339.25;7388095;19;20455;-77
2023/09/06 00:40:57;;;;;;;4.57;1.50;;;;;;;18.62;84.22;101342.41;7385799;19;20360;-77
2023/09/06 00:43:24;;;;;;;4.90;1.70;;;;;;;18.59;84.14;101331.22;7385782;19;20400;-77
2023/09/06 00:45:51;;;;;;;5.65;1.60;;;;;;;18.56;84.18;101332.50;7386071;19;20364;-77
2023/09/06 00:48:25;;;;;;;3.22;1.27;;;;;;;18.54;84.46;101334.56;7381985;19;20431;-76
2023/09/06 00:50:55;;;;;;;4.30;1.65;;;;;;;18.50;84.59;101338.72;7382682;19;20368;-77
2023/09/06 00:53:24;;;;;;;3.55;1.60;;;;;;;18.45;84.64;101333.97;7382600;19;20353;-77
2023/09/06 00:55:52;;;;;;;3.42;1.48;;;;;;;18.42;84.62;101336.25;7384765;19;20384;-77
2023/09/06 00:58:20;;;;;;;3.75;1.80;;;;;;;18.38;84.96;101340.38;7386353;19;20428;-77
2023/09/06 01:00:49;;;;;;;5.68;2.08;;;;;;;18.31;84.97;101341.22;7383873;19;20364;-77
2023/09/06 01:03:17;;;;;;;4.10;1.80;;;;;;;18.28;85.70;101330.91;7387019;19;20964;-77
2023/09/06 01:05:52;;;;;;;3.10;1.70;;;;;;;18.22;85.59;101337.13;7384395;19;20441;-77
2023/09/06 01:08:31;;;;;;;4.60;1.40;;;;;;;18.19;85.83;101337.56;7382310;19;20396;-77
2023/09/06 01:11:23;;;;;;;3.67;1.40;;;;;;;18.17;86.33;101336.94;7380331;19;20412;-77
2023/09/06 01:13:55;;;;;;;4.78;1.52;;;;;;;18.15;86.46;101341.69;7382469;19;20360;-77
2023/09/06 01:16:39;;;;;;;4.35;1.40;;;;;;;18.13;86.53;101341.09;7384167;19;20881;-77
2023/09/06 01:19:09;;;;;;;4.40;1.70;;;;;;;18.12;86.69;101337.56;7384813;19;20444;-77
2023/09/06 01:21:41;;;;;;;3.50;1.40;;;;;;;18.12;86.59;101342.09;7386476;19;20356;-77
2023/09/06 01:24:10;;;;;;;4.20;1.75;;;;;;;18.12;86.77;101348.28;7383398;19;20367;-77
2023/09/06 01:26:37;;;;;;;4.20;1.60;;;;;;;18.08;87.32;101339.00;7383513;19;21107;-77
2023/09/06 01:29:04;;;;;;;3.90;1.45;;;;;;;18.07;87.31;101334.69;7382817;19;20440;-77
2023/09/06 01:31:31;;;;;;;4.20;1.50;;;;;;;18.08;87.52;101340.88;7383456;19;20404;-77
2023/09/06 01:33:58;;;;;;;4.50;1.30;;;;;;;18.09;87.47;101345.22;7383565;19;20404;-77
2023/09/06 01:36:25;;;;;;;3.75;1.50;;;;;;;18.09;87.57;101343.34;7382337;19;20928;-77
2023/09/06 01:38:52;;;;;;;3.35;1.50;;;;;;;18.10;87.63;101347.66;7386629;19;20347;-77
2023/09/06 01:41:19;;;;;;;3.55;1.35;;;;;;;18.11;87.80;101335.91;7380152;19;20837;-77
2023/09/06 01:43:46;;;;;;;3.05;1.40;;;;;;;18.13;87.79;101336.53;7382268;19;20364;-77
2023/09/06 01:46:13;;;;;;;3.95;1.38;;;;;;;18.16;87.11;101332.59;7385849;19;20386;-77
2023/09/06 01:48:40;;;;;;;3.30;1.45;;;;;;;18.17;87.58;101344.16;7381185;19;20385;-77
2023/09/06 01:51:10;;;;;;;3.53;1.27;;;;;;;18.16;87.51;101337.97;7381717;19;20424;-77
2023/09/06 01:53:36;;;;;;;3.83;1.40;;;;;;;18.17;87.37;101344.16;7384266;19;20925;-77
2023/09/06 01:56:04;;;;;;;2.95;1.30;;;;;;;18.18;87.46;101335.09;7382607;19;20414;-76
2023/09/06 01:58:32;;;;;;;4.88;1.33;;;;;;;18.18;87.28;101338.59;7384779;19;20455;-76
2023/09/06 02:01:06;;;;;;;3.10;1.40;;;;;;;18.17;87.52;101342.31;7382891;19;20837;-76
2023/09/06 02:03:33;;;;;;;5.30;1.67;;;;;;;18.16;87.54;101343.34;7381915;19;20372;-76
2023/09/06 02:06:01;;;;;;;3.17;1.45;;;;;;;18.16;87.14;101339.84;7379872;19;20352;-76
2023/09/06 02:08:28;;;;;;;4.30;1.40;;;;;;;18.13;87.21;101343.78;7380413;19;20447;-77
2023/09/06 02:10:55;;;;;;;5.68;1.58;;;;;;;18.13;87.47;101343.78;7380773;19;20378;-77
2023/09/06 02:13:22;;;;;;;2.25;1.35;;;;;;;18.13;87.68;101349.13;7383018;19;20882;-77
2023/09/06 02:15:48;;;;;;;5.22;1.90;;;;;;;18.11;87.76;101351.22;7381075;19;20361;-77
2023/09/06 02:18:17;;;;;;;2.90;1.50;;;;;;;18.08;87.74;101354.28;7383966;19;20337;-77
2023/09/06 02:20:45;;;;;;;3.15;1.30;;;;;;;18.05;87.93;101355.53;7381782;19;20356;-77
2023/09/06 02:23:11;;;;;;;4.78;1.55;;;;;;;18.03;87.93;101359.47;7379102;19;20371;-77
2023/09/06 02:25:38;;;;;;;3.03;1.63;;;;;;;18.04;88.51;101361.09;7382153;19;20356;-77
2023/09/06 02:28:07;;;;;;;4.85;1.70;;;;;;;18.02;88.56;101357.81;7381386;19;20754;-77
2023/09/06 02:30:37;;;;;;;6.40;1.63;;;;;;;17.99;88.83;101360.91;7381576;19;20344;-77
2023/09/06 02:33:05;;;;;;;5.13;1.60;;;;;;;17.96;88.71;101362.16;7382901;19;20349;-77
2023/09/06 02:35:40;;;;;;;3.58;1.42;;;;;;;17.95;88.85;101359.69;7384435;19;20360;-77
2023/09/06 02:38:11;;;;;;;3.53;1.50;;;;;;;17.90;88.83;101371.03;7383783;19;20940;-77
2023/09/06 02:40:40;;;;;;;3.80;1.38;;;;;;;17.87;89.25;101366.06;7380365;19;21032;-77
2023/09/06 02:43:10;;;;;;;4.15;1.42;;;;;;;17.86;89.31;101365.25;7380414;19;20356;-77
2023/09/06 02:45:38;;;;;;;3.53;1.60;;;;;;;17.83;89.42;101359.47;7379751;19;20399;-77
2023/09/06 02:48:07;;;;;;;6.85;1.90;;;;;;;17.81;89.51;101356.97;7384150;19;20360;-77
2023/09/06 02:50:34;;;;;;;2.92;1.40;;;;;;;17.82;89.83;101364.00;7380646;19;20896;-77
2023/09/06 02:53:03;;;;;;;5.05;1.55;;;;;;;17.82;89.74;101368.53;7382470;19;20348;-77
2023/09/06 02:55:35;;;;;;;3.88;1.60;;;;;;;17.82;90.20;101363.16;7387785;19;20390;-77
2023/09/06 02:58:04;;;;;;;3.75;1.70;;;;;;;17.81;90.30;101367.72;7388830;19;20321;-77
2023/09/06 03:00:35;;;;;;;4.90;1.65;;;;;;;17.82;89.99;101369.38;7389664;19;20359;-77
2023/09/06 03:03:06;;;;;;;3.92;1.52;;;;;;;17.83;89.71;101373.72;7391011;19;20356;-77
2023/09/06 03:05:41;;;;;;;5.07;1.45;;;;;;;17.80;89.83;101366.03;7388581;19;20356;-76
2023/09/06 03:08:13;;;;;;;4.33;1.60;;;;;;;17.76;89.15;101370.16;7392201;19;20695;-76
2023/09/06 03:10:42;;;;;;;3.30;1.50;;;;;;;17.72;88.56;101372.47;7389893;19;20397;-76
2023/09/06 03:13:09;;;;;;;5.60;2.17;;;;;;;17.66;87.91;101375.97;7390827;19;20433;-76
2023/09/06 03:15:43;;;;;;;2.63;1.17;;;;;;;17.61;87.58;101380.28;7389282;19;20365;-77
2023/09/06 03:18:11;;;;;;;3.33;1.38;;;;;;;17.55;87.58;101389.16;7390042;19;20439;-76
2023/09/06 03:20:44;;;;;;;4.18;1.20;;;;;;;17.49;87.38;101385.44;7387009;19;20880;-76
2023/09/06 03:23:21;;;;;;;3.30;1.40;;;;;;;17.44;87.54;101383.34;7387380;19;20356;-76
2023/09/06 03:25:54;;;;;;;3.65;1.35;;;;;;;17.43;87.48;101380.88;7389189;19;20364;-76
2023/09/06 03:28:26;;;;;;;2.55;1.23;;;;;;;17.37;87.25;101382.50;7388276;19;20336;-76
2023/09/06 03:30:58;;;;;;;3.80;1.20;;;;;;;17.32;87.29;101379.63;7389451;19;20360;-76
2023/09/06 03:33:27;;;;;;;2.20;1.00;;;;;;;17.27;86.79;101388.25;7385336;19;20376;-76
2023/09/06 03:35:55;;;;;;;3.92;1.25;;;;;;;17.23;87.27;101392.38;7390416;19;20411;-76
2023/09/06 03:38:25;;;;;;;3.50;1.10;;;;;;;17.21;87.41;101393.59;7392798;19;20340;-76
2023/09/06 03:40:54;;;;;;;4.97;1.45;;;;;;;17.20;87.67;101402.69;7393703;19;20392;-76
2023/09/06 03:43:29;;;;;;;3.30;1.40;;;;;;;17.19;87.74;101398.34;7392851;19;20446;-76
2023/09/06 03:45:58;;;;;;;3.83;1.50;;;;;;;17.17;87.75;101403.06;7399860;19;20360;-77
2023/09/06 03:48:27;;;;;;;3.55;1.30;;;;;;;17.16;88.33;101396.06;7394963;19;20403;-76
2023/09/06 03:50:57;;;;;;;4.35;1.52;;;;;;;17.14;88.47;101398.13;7389961;19;20679;-76
2023/09/06 03:53:27;;;;;;;4.50;1.77;;;;;;;17.11;88.47;101402.88;7395634;19;20352;-76
2023/09/06 03:55:57;;;;;;;6.18;1.70;;;;;;;17.07;88.76;101398.09;7391572;19;20358;-76
2023/09/06 03:58:45;;;;;;;2.58;1.50;;;;;;;17.07;89.00;101398.09;7396188;19;20423;-76
2023/09/06 04:01:15;;;;;;;4.45;1.70;;;;;;;17.06;88.88;101401.81;7394962;19;20340;-76
2023/09/06 04:03:46;;;;;;;4.05;1.70;;;;;;;17.04;88.75;101404.72;7394814;19;20407;-76
2023/09/06 04:06:15;;;;;;;4.22;1.63;;;;;;;17.04;88.99;101403.84;7398710;19;20992;-76
2023/09/06 04:08:44;;;;;;;5.18;1.70;;;;;;;17.05;89.15;101410.88;7393032;19;20444;-76
2023/09/06 04:11:11;;;;;;;4.55;1.70;;;;;;;17.04;89.40;101404.72;7392555;19;20358;-76
2023/09/06 04:13:42;;;;;;;2.72;1.70;;;;;;;17.03;89.51;101408.41;7394133;19;20316;-76
2023/09/06 04:16:09;;;;;;;13.10;3.70;;;;;;;16.97;89.29;101401.16;7392680;19;20378;-76
2023/09/06 04:18:38;;;;;;;4.32;1.83;;;;;;;16.92;89.78;101395.56;7395634;19;20698;-76
2023/09/06 04:21:08;;;;;;;3.78;1.70;;;;;;;16.88;90.64;101411.22;7394439;19;20363;-76
2023/09/06 04:23:40;;;;;;;3.92;1.67;;;;;;;16.86;90.79;101412.44;7393938;19;20951;-76
2023/09/06 04:26:08;;;;;;;3.53;1.75;;;;;;;16.82;91.12;101405.84;7392517;19;20354;-76
2023/09/06 04:28:36;;;;;;;3.40;1.70;;;;;;;16.79;91.28;101412.38;7395639;19;20438;-76
2023/09/06 04:31:05;;;;;;;2.80;1.65;;;;;;;16.76;91.49;101412.78;7392978;19;20397;-75
2023/09/06 04:33:37;;;;;;;6.43;3.03;;;;;;;16.77;91.34;101408.25;7394315;19;20373;-75
2023/09/06 04:36:09;;;;;;;5.75;2.72;;;;;;;16.92;96.19;101409.78;7395567;19;20364;-75
2023/09/06 04:38:37;;;;;;;5.82;2.40;;;;;;;17.20;95.50;101408.88;7397790;19;20377;-75
2023/09/06 04:41:06;;;;;;;3.30;1.70;;;;;;;17.44;93.94;101412.84;7397836;19;20364;-75
2023/09/06 04:43:39;;;;;;;3.35;1.40;;;;;;;17.72;93.17;101409.19;7397035;19;20332;-75
2023/09/06 04:46:07;;;;;;;3.25;1.58;;;;;;;17.83;91.00;101408.63;7392627;19;20909;-75
2023/09/06 04:48:39;;;;;;;6.10;1.73;;;;;;;17.96;89.42;101401.59;7395100;19;20353;-75
2023/09/06 04:51:07;;;;;;;3.67;1.63;;;;;;;18.04;88.99;101414.81;7390804;19;20385;-75
2023/09/06 04:53:34;;;;;;;2.65;1.77;;;;;;;18.06;87.80;101410.91;7391909;19;20351;-75
2023/09/06 04:56:05;;;;;;;7.03;1.95;;;;;;;18.05;87.23;101409.25;7397382;19;20868;-75
2023/09/06 04:58:45;;;;;;;4.20;2.03;;;;;;;18.06;87.58;101410.06;7396426;19;20371;-75
2023/09/06 05:01:12;;;;;;;4.25;1.90;;;;;;;18.05;86.89;101408.41;7397207;19;20461;-75
2023/09/06 05:03:40;;;;;;;4.95;2.50;;;;;;;18.05;86.69;101400.38;7393683;19;20376;-75
2023/09/06 05:06:07;;;;;;;6.10;2.30;;;;;;;18.07;86.94;101403.66;7397502;19;20368;-75
2023/09/06 05:08:34;;;;;;;3.95;2.15;;;;;;;18.04;86.89;101404.06;7391375;19;20379;-75
2023/09/06 05:11:14;;;;;;;5.47;2.30;;;;;;;18.06;87.32;101407.38;7388165;19;20746;-75
2023/09/06 05:13:41;;;;;;;6.07;2.20;;;;;;;18.09;87.67;101413.16;7395065;19;20451;-75
2023/09/06 05:16:08;;;;;;;8.13;2.90;;;;;;;18.13;87.77;101410.91;7397948;19;20360;-75
2023/09/06 05:18:38;;;;;;;6.97;2.40;;;;;;;18.22;87.71;101409.63;7394534;19;20376;-75
2023/09/06 05:21:05;;;;;;;5.65;2.50;;;;;;;18.29;87.38;101418.50;7395803;19;20368;-75
2023/09/06 05:23:36;;;;;;;4.10;2.20;;;;;;;18.36;87.16;101420.34;7395614;19;20361;-75
2023/09/06 05:26:03;;;;;;;4.95;2.20;;;;;;;18.41;87.02;101424.09;7393638;19;21649;-75
2023/09/06 05:28:43;;;;;;;7.25;2.45;;;;;;;18.51;87.33;101427.16;7392074;19;20848;-75
2023/09/06 05:31:12;;;;;;;6.38;2.15;;;;;;;18.61;86.82;101418.66;7387344;19;20333;-75
2023/09/06 05:33:42;;;;;;;5.53;2.38;;;;;;;18.71;86.59;101427.09;7394242;19;20436;-75
2023/09/06 05:36:11;;;;;;;4.55;2.30;;;;;;;18.83;86.28;101429.16;7392685;19;20384;-75
2023/09/06 05:38:38;;;;;;;7.82;2.28;;;;;;;18.97;85.97;101424.59;7392669;19;20365;-75
2023/09/06 05:41:05;;;;;;;9.77;2.22;;;;;;;19.27;86.89;101430.25;7393319;19;20870;-75
2023/09/06 05:43:39;;;;;;;5.35;2.05;;;;;;;19.62;85.46;101424.47;7395313;19;20379;-75
2023/09/06 05:46:06;;;;;;;8.48;2.10;;;;;;;20.02;84.38;101426.88;7390782;19;20401;-75
2023/09/06 05:48:54;;;;;;;5.35;1.95;;;;;;;20.45;82.26;101436.88;7392667;19;20348;-75
2023/09/06 05:51:20;;;;;;;5.63;2.15;;;;;;;20.77;80.84;101437.59;7389795;19;20361;-74
2023/09/06 05:53:48;;;;;;;5.25;2.42;;;;;;;20.85;78.96;101431.91;7393942;19;20360;-74
2023/09/06 05:56:15;;;;;;;4.43;2.00;;;;;;;20.77;78.27;101443.81;7389090;19;20366;-74
2023/09/06 05:58:42;;;;;;;6.85;2.70;;;;;;;20.70;78.28;101439.56;7391234;19;20683;-74
2023/09/06 06:01:11;;;;;;;7.00;3.43;;;;;;;20.63;78.39;101436.91;7393589;19;20352;-74
2023/09/06 06:03:38;;;;;;;5.25;2.13;;;;;;;20.59;78.59;101449.16;7391937;19;20398;-74
2023/09/06 06:06:10;;;;;;;5.05;2.20;;;;;;;20.56;78.49;101444.22;7394141;19;20377;-74
2023/09/06 06:08:38;;;;;;;3.58;1.98;;;;;;;20.61;79.13;101449.78;7387786;19;20389;-74
2023/09/06 06:11:05;;;;;;;4.82;1.60;;;;;;;20.68;79.14;101447.84;7388617;19;20395;-74
2023/09/06 06:13:33;;;;;;;4.90;2.60;;;;;;;20.74;78.88;101452.34;7391418;19;20373;-75
2023/09/06 06:16:00;;;;;;;4.95;2.10;;;;;;;20.77;78.49;101451.88;7394138;19;20341;-74
2023/09/06 06:18:27;;;;;;;4.32;2.00;;;;;;;20.81;78.67;101456.84;7393698;19;20380;-74
2023/09/06 06:20:55;;;;;;;4.78;1.88;;;;;;;20.88;78.63;101462.97;7390299;19;20324;-74
2023/09/06 06:23:22;;;;;;;3.00;1.67;;;;;;;21.00;78.63;101461.19;7393571;19;20372;-75
2023/09/06 06:25:48;;;;;;;6.07;1.70;;;;;;;21.09;78.11;101465.22;7387107;19;20356;-74
2023/09/06 06:28:15;;;;;;;3.45;1.95;;;;;;;21.20;78.08;101460.13;7385802;19;20431;-74
2023/09/06 06:30:42;;;;;;;108.10;98.23;;;;;;;21.27;77.56;101461.69;7386121;19;20377;-74
2023/09/06 06:33:09;;;;;;;3.90;2.00;;;;;;;21.34;76.97;101467.81;7390850;19;20880;-74
2023/09/06 06:35:36;;;;;;;7.13;3.20;;;;;;;21.44;77.26;101464.59;7392209;19;20722;-74
2023/09/06 06:38:04;;;;;;;5.20;1.77;;;;;;;21.54;77.03;101472.97;7392209;19;20369;-75
2023/09/06 06:40:34;;;;;;;3.57;2.07;;;;;;;21.62;76.80;101468.31;7392030;19;20412;-74
2023/09/06 06:43:01;;;;;;;3.17;1.83;;;;;;;21.71;76.35;101469.63;7393172;19;20886;-74
2023/09/06 06:45:28;;;;;;;3.80;1.80;;;;;;;21.83;76.19;101470.50;7386207;19;20365;-74
2023/09/06 06:47:55;;;;;;;5.72;2.22;;;;;;;21.96;75.23;101464.88;7391894;19;20395;-74
2023/09/06 06:50:22;;;;;;;14.18;12.57;;;;;;;22.07;74.43;101459.72;7390879;19;20390;-74
2023/09/06 06:52:49;;;;;;;8.80;5.75;;;;;;;22.23;73.97;101459.06;7391552;19;20369;-74
2023/09/06 06:55:16;;;;;;;10.43;7.35;;;;;;;22.38;73.64;101464.03;7394557;19;20365;-74
2023/09/06 06:57:42;;;;;;;5.13;2.63;;;;;;;22.49;73.12;101463.19;7390813;19;20875;-75
2023/09/06 07:00:11;;;;;;;6.18;3.90;;;;;;;22.62;72.24;101459.41;7382605;19;20348;-75
2023/09/06 07:02:38;;;;;;;3.35;2.13;;;;;;;22.73;72.52;101463.16;7379991;19;20332;-75
2023/09/06 07:05:05;;;;;;;16.20;12.85;;;;;;;22.87;72.07;101467.25;7383676;19;20385;-75
2023/09/06 07:07:32;;;;;;;7.25;4.50;;;;;;;23.02;71.70;101471.38;7380493;19;20404;-75
2023/09/06 07:09:59;;;;;;;6.22;2.15;;;;;;;23.16;69.88;101470.88;7382436;19;20376;-74
2023/09/06 07:12:26;;;;;;;4.55;1.30;;;;;;;23.25;69.97;101471.31;7384798;19;20336;-74
2023/09/06 07:14:54;;;;;;;3.63;1.20;;;;;;;23.36;69.59;101473.16;7387219;19;20679;-74
2023/09/06 07:17:20;;;;;;;2.95;1.30;;;;;;;23.46;68.71;101467.13;7394018;19;20904;-74
2023/09/06 07:19:47;;;;;;;2.58;1.17;;;;;;;23.60;68.69;101473.88;7393547;19;20389;-74
2023/09/06 07:22:14;;;;;;;4.05;1.70;;;;;;;23.77;67.62;101470.41;7389058;19;20386;-74
2023/09/06 07:24:41;;;;;;;30.52;27.38;;;;;;;23.95;67.42;101470.19;7388397;19;20360;-74
2023/09/06 07:27:08;;;;;;;9.82;7.03;;;;;;;24.12;66.83;101474.75;7389335;19;20354;-74
2023/09/06 07:29:35;;;;;;;10.52;7.10;;;;;;;24.23;66.32;101473.88;7391147;19;20396;-74
2023/09/06 07:32:03;;;;;;;8.05;7.00;;;;;;;24.34;65.32;101470.25;7390609;19;20361;-74
2023/09/06 07:34:30;;;;;;;3.90;1.90;;;;;;;24.50;64.86;101475.91;7392493;19;20377;-74
2023/09/06 07:36:57;;;;;;;11.43;8.27;;;;;;;24.63;64.37;101481.00;7390781;19;20383;-74
2023/09/06 07:39:24;;;;;;;9.95;8.48;;;;;;;24.76;64.82;101486.06;7383969;19;20357;-74
2023/09/06 07:41:52;;;;;;;5.35;2.95;;;;;;;24.92;63.42;101478.13;7390492;19;20365;-74
2023/09/06 07:44:19;;;;;;;92.93;84.03;;;;;;;25.02;62.20;101480.97;7388971;19;20687;-74
2023/09/06 07:46:48;;;;;;;18.05;15.20;;;;;;;25.14;62.02;101483.53;7391644;19;20451;-74
2023/09/06 07:49:18;;;;;;;3.97;1.90;;;;;;;25.26;61.42;101483.44;7391067;19;20885;-74
2023/09/06 07:51:45;;;;;;;4.85;1.50;;;;;;;25.36;60.53;101494.44;7390781;19;20436;-75
2023/09/06 07:54:12;;;;;;;2.63;1.30;;;;;;;25.47;60.90;101487.22;7389840;19;20439;-75
2023/09/06 07:56:39;;;;;;;3.50;1.30;;;;;;;25.58;60.61;101491.66;7385274;19;20372;-79
2023/09/06 07:59:10;;;;;;;3.08;1.27;;;;;;;25.70;60.19;101483.38;7390835;19;20453;-79
2023/09/06 08:01:37;;;;;;;3.63;1.35;;;;;;;25.83;59.84;101489.19;7387025;19;20382;-78
2023/09/06 08:04:04;;;;;;;3.42;1.40;;;;;;;25.95;59.48;101489.06;7389653;19;20352;-79
2023/09/06 08:06:31;;;;;;;3.63;1.20;;;;;;;26.00;58.62;101493.72;7391646;19;20386;-79
2023/09/06 08:08:58;;;;;;;3.58;1.25;;;;;;;26.12;59.09;101488.09;7390770;19;20352;-78
2023/09/06 08:11:25;;;;;;;1.98;1.27;;;;;;;26.19;57.89;101491.44;7387738;19;20363;-78
2023/09/06 08:13:52;;;;;;;3.03;1.20;;;;;;;26.27;57.65;101492.84;7386868;19;20357;-79
2023/09/06 08:16:19;;;;;;;3.13;1.25;;;;;;;26.36;57.64;101494.81;7390078;19;20356;-79
2023/09/06 08:18:46;;;;;;;6.30;1.23;;;;;;;26.44;56.92;101496.25;7391117;19;20356;-78
2023/09/06 08:21:15;;;;;;;3.80;1.33;;;;;;;26.58;57.22;101488.47;7390838;19;20888;-78
2023/09/06 08:23:43;;;;;;;2.38;1.15;;;;;;;26.69;56.79;101490.16;7395862;19;20368;-78
2023/09/06 08:26:11;;;;;;;3.53;1.30;;;;;;;26.77;55.98;101486.94;7398761;19;20364;-78
2023/09/06 08:28:38;;;;;;;4.22;1.75;;;;;;;26.88;56.52;101493.25;7397269;19;20778;-78
2023/09/06 08:31:05;;;;;;;3.28;1.02;;;;;;;26.95;55.90;101493.03;7390703;19;20952;-78
2023/09/06 08:33:33;;;;;;;3.42;1.00;;;;;;;27.03;55.87;101489.75;7397025;19;20364;-78
2023/09/06 08:36:00;;;;;;;2.83;1.10;;;;;;;27.14;55.06;101501.50;7397552;19;20932;-78
2023/09/06 08:38:27;;;;;;;2.90;1.13;;;;;;;27.22;54.51;101490.97;7394298;19;20884;-78
2023/09/06 08:40:55;;;;;;;3.38;1.17;;;;;;;27.32;54.37;101492.91;7393799;19;20440;-78
2023/09/06 08:43:23;;;;;;;4.07;1.25;;;;;;;27.42;55.01;101492.94;7394373;19;20360;-78
2023/09/06 08:45:51;;;;;;;3.30;1.10;;;;;;;27.51;54.64;101484.22;7394500;19;20840;-78
2023/09/06 08:48:18;;;;;;;2.75;1.20;;;;;;;27.63;54.64;101488.34;7398506;19;20361;-78
2023/09/06 08:50:45;;;;;;;2.95;1.17;;;;;;;27.73;54.52;101486.72;7391878;19;20344;-78
2023/09/06 08:53:15;;;;;;;3.80;1.20;;;;;;;27.85;53.94;101484.53;7387533;19;20895;-78
2023/09/06 08:55:43;;;;;;;3.50;1.13;;;;;;;28.02;54.10;101487.84;7395906;19;20372;-79
2023/09/06 08:58:11;;;;;;;2.90;1.20;;;;;;;28.17;53.25;101491.66;7394324;19;20432;-79
2023/09/06 09:00:38;;;;;;;3.38;1.30;;;;;;;28.24;52.41;101486.72;7396975;19;20363;-79
2023/09/06 09:03:05;;;;;;;3.20;1.00;;;;;;;28.36;52.88;101484.53;7397377;19;20852;-79
2023/09/06 09:05:32;;;;;;;2.78;1.10;;;;;;;28.46;51.16;101489.19;7397151;19;20369;-79
2023/09/06 09:08:00;;;;;;;3.53;1.08;;;;;;;28.57;51.39;101490.00;7394248;19;20771;-79
2023/09/06 09:10:31;;;;;;;3.13;1.10;;;;;;;28.68;51.52;101486.13;7394508;19;20387;-79
2023/09/06 09:13:00;;;;;;;3.03;1.23;;;;;;;28.71;50.29;101491.06;7398808;19;20361;-79
2023/09/06 09:15:34;;;;;;;3.53;1.08;;;;;;;28.82;50.47;101487.19;7396242;19;20336;-79
2023/09/06 09:18:13;;;;;;;3.42;1.60;;;;;;;28.94;49.43;101489.59;7396153;19;20896;-78
2023/09/06 09:20:40;;;;;;;4.55;1.05;;;;;;;29.04;47.48;101494.19;7404149;19;20368;-78
2023/09/06 09:23:14;;;;;;;2.97;1.30;;;;;;;29.10;48.31;101489.56;7408590;19;20422;-78
2023/09/06 09:25:49;;;;;;;3.08;1.02;;;;;;;29.18;46.58;101487.06;7401974;19;20368;-78
2023/09/06 09:28:16;;;;;;;4.95;1.05;;;;;;;29.25;46.51;101484.84;7403705;19;20367;-78
2023/09/06 09:30:46;;;;;;;3.08;1.02;;;;;;;29.36;47.26;101484.78;7403196;19;20353;-78
2023/09/06 09:33:13;;;;;;;3.05;1.00;;;;;;;29.41;46.28;101492.94;7398619;19;20397;-78
2023/09/06 09:35:40;;;;;;;3.58;1.10;;;;;;;29.45;44.41;101477.59;7400888;19;20373;-79
2023/09/06 09:38:10;;;;;;;2.50;1.20;;;;;;;29.54;45.12;101491.50;7395410;19;20365;-78
2023/09/06 09:40:37;;;;;;;3.28;1.17;;;;;;;29.64;45.47;101486.75;7395652;19;20356;-78
2023/09/06 09:43:19;;;;;;;3.63;1.10;;;;;;;29.75;46.27;101486.72;7397997;19;20352;-78
2023/09/06 09:45:47;;;;;;;2.75;1.23;;;;;;;29.82;46.20;101492.72;7392229;19;20382;-79
2023/09/06 09:48:15;;;;;;;2.95;1.08;;;;;;;29.96;45.95;101493.66;7392132;19;20410;-79
2023/09/06 09:50:44;;;;;;;7.45;1.15;;;;;;;30.06;45.03;101493.59;7394102;19;20368;-78
2023/09/06 09:53:12;;;;;;;3.65;1.15;;;;;;;30.19;43.87;101488.56;7394488;19;20675;-78
2023/09/06 09:55:47;;;;;;;3.05;1.17;;;;;;;30.20;44.16;101490.16;7396035;19;20357;-79
2023/09/06 09:58:17;;;;;;;3.08;1.30;;;;;;;30.27;43.62;101487.94;7395938;19;20337;-79
2023/09/06 10:00:44;;;;;;;2.97;1.25;;;;;;;30.33;44.04;101492.28;7381337;19;20411;-79
2023/09/06 10:03:13;;;;;;;2.30;1.10;;;;;;;30.30;43.76;101492.84;7387732;19;20384;-78
2023/09/06 10:05:42;;;;;;;2.90;0.95;;;;;;;30.33;43.74;101486.81;7382825;19;20368;-78
2023/09/06 10:08:10;;;;;;;4.85;1.30;;;;;;;30.42;44.59;101485.06;7392746;19;20361;-78
2023/09/06 10:10:41;;;;;;;5.32;1.45;;;;;;;30.58;43.94;101487.63;7385899;19;20667;-79
2023/09/06 10:13:08;;;;;;;4.33;1.20;;;;;;;30.64;43.45;101481.81;7385498;19;20870;-79
2023/09/06 10:15:37;;;;;;;3.28;1.20;;;;;;;30.73;43.36;101484.75;7383435;19;20353;-78
2023/09/06 10:18:06;;;;;;;1.90;1.10;;;;;;;30.81;43.18;101478.59;7392842;19;20361;-79
2023/09/06 10:20:35;;;;;;;3.90;1.07;;;;;;;30.88;41.23;101473.63;7388072;19;20336;-78
2023/09/06 10:23:06;;;;;;;3.97;1.30;;;;;;;30.95;41.88;101465.03;7391664;19;20364;-78
2023/09/06 10:25:41;;;;;;;3.40;1.30;;;;;;;31.02;40.72;101472.91;7393016;19;20371;-78
2023/09/06 10:28:14;;;;;;;4.25;1.15;;;;;;;31.11;41.08;101467.56;7392677;19;20727;-78
2023/09/06 10:30:48;;;;;;;6.28;1.23;;;;;;;31.19;41.07;101470.47;7392377;19;20427;-78
2023/09/06 10:33:35;;;;;;;4.20;1.50;;;;;;;31.28;40.50;101463.22;7390628;19;20674;-78
2023/09/06 10:36:11;;;;;;;4.88;1.70;;;;;;;31.34;40.94;101468.63;7394027;19;20365;-78
2023/09/06 10:38:51;;;;;;;3.97;1.52;;;;;;;31.44;40.73;101469.31;7394376;19;20680;-78
2023/09/06 10:41:27;;;;;;;4.78;1.58;;;;;;;31.51;40.77;101468.94;7393345;19;20711;-78
2023/09/06 10:44:03;;;;;;;5.80;2.00;;;;;;;31.58;40.40;101474.03;7391000;19;20714;-78
2023/09/06 10:46:32;;;;;;;4.50;1.40;;;;;;;31.66;40.14;101468.69;7394685;19;20372;-78
2023/09/06 10:49:11;;;;;;;6.97;1.60;;;;;;;31.72;39.70;101466.69;7392668;19;20368;-78
2023/09/06 10:51:59;;;;;;;3.40;1.33;;;;;;;31.81;39.44;101475.84;7393966;19;20441;-78
2023/09/06 10:54:37;;;;;;;3.75;1.50;;;;;;;31.88;39.31;101470.00;7393849;19;20385;-78
2023/09/06 10:57:12;;;;;;;4.50;1.45;;;;;;;31.97;39.77;101467.38;7392658;19;20372;-78
2023/09/06 10:59:58;;;;;;;4.03;1.33;;;;;;;31.94;38.75;101468.78;7386613;19;20361;-78
2023/09/06 11:02:26;;;;;;;5.30;1.80;;;;;;;32.03;38.54;101477.19;7383900;19;20401;-78
2023/09/06 11:05:15;;;;;;;5.55;1.60;;;;;;;32.09;37.97;101468.56;7379953;19;20442;-78
2023/09/06 11:07:44;;;;;;;2.65;1.20;;;;;;;32.13;37.91;101476.19;7389270;19;20702;-78
2023/09/06 11:10:21;;;;;;;2.30;1.23;;;;;;;32.13;38.41;101470.69;7383508;19;20376;-78
2023/09/06 11:12:48;;;;;;;3.57;1.30;;;;;;;32.20;37.56;101471.13;7390079;19;20366;-78
2023/09/06 11:15:15;;;;;;;3.97;1.52;;;;;;;32.26;38.16;101475.38;7391385;19;20776;-78
2023/09/06 11:17:42;;;;;;;2.30;1.20;;;;;;;32.39;37.81;101476.50;7392583;19;20361;-78
2023/09/06 11:20:14;;;;;;;2.88;1.20;;;;;;;32.50;37.34;101480.72;7387769;19;20385;-78
2023/09/06 11:22:49;;;;;;;5.70;1.48;;;;;;;32.60;37.40;101474.22;7394953;19;21125;-78
2023/09/06 11:25:17;;;;;;;4.47;1.50;;;;;;;32.69;37.08;101472.41;7392435;19;20362;-78
2023/09/06 11:27:46;;;;;;;5.68;1.60;;;;;;;32.77;36.89;101482.69;7394572;19;20768;-78
2023/09/06 11:30:21;;;;;;;4.77;1.33;;;;;;;32.83;36.58;101481.44;7392810;19;20364;-78
2023/09/06 11:32:50;;;;;;;4.33;1.70;;;;;;;32.86;36.29;101475.34;7389433;19;20436;-78
2023/09/06 11:35:33;;;;;;;5.10;1.98;;;;;;;32.98;35.09;101474.78;7389293;19;20385;-78